sensor_id;sensor_type;location;lat;lon;timestamp;temperature;humidity
14061;DHT22;7105;43.616;1.434;2023-08-21T00:01:36;28.40;99.90
14061;DHT22;7105;43.616;1.434;2023-08-21T00:04:02;28.10;99.90
14061;DHT22;7105;43.616;1.434;2023-08-21T00:06:28;28.10;99.90
14061;DHT22;7105;43.616;1.434;2023-08-21T00:08:54;28.00;99.90
14061;DHT22;7105;43.616;1.434;2023-08-21T00:11:19;28.10;99.90
14061;DHT22;7105;43.616;1.434;2023-08-21T00:13:45;28.10;99.90
14061;DHT22;7105;43.616;1.434;2023-08-21T00:16:13;28.00;99.90
14061;DHT22;7105;43.616;1.434;2023-08-21T00:18:39;27.80;99.90
14061;DHT22;7105;43.616;1.434;2023-08-21T00:21:04;27.90;99.90
14061;DHT22;7105;43.616;1.434;2023-08-21T00:23:30;27.70;99.90
14061;DHT22;7105;43.616;1.434;2023-08-21T00:25:56;27.70;99.90
14061;DHT22;7105;43.616;1.434;2023-08-21T00:28:22;27.60;99.90
14061;DHT22;7105;43.616;1.434;2023-08-21T00:30:48;27.40;99.90
14061;DHT22;7105;43.616;1.434;2023-08-21T00:33:16;27.50;99.90
14061;DHT22;7105;43.616;1.434;2023-08-21T00:35:42;27.40;99.90
14061;DHT22;7105;43.616;1.434;2023-08-21T00:38:08;27.40;99.90
14061;DHT22;7105;43.616;1.434;2023-08-21T00:40:34;27.30;99.90
14061;DHT22;7105;43.616;1.434;2023-08-21T00:42:59;27.30;99.90
14061;DHT22;7105;43.616;1.434;2023-08-21T00:45:25;27.20;99.90
14061;DHT22;7105;43.616;1.434;2023-08-21T00:47:51;27.20;99.90
14061;DHT22;7105;43.616;1.434;2023-08-21T00:50:17;27.20;99.90
14061;DHT22;7105;43.616;1.434;2023-08-21T00:52:45;27.10;99.90
14061;DHT22;7105;43.616;1.434;2023-08-21T00:55:13;27.20;99.90
14061;DHT22;7105;43.616;1.434;2023-08-21T00:57:39;27.20;99.90
14061;DHT22;7105;43.616;1.434;2023-08-21T01:00:06;27.20;99.90
14061;DHT22;7105;43.616;1.434;2023-08-21T01:02:35;27.10;99.90
14061;DHT22;7105;43.616;1.434;2023-08-21T01:05:01;27.00;99.90
14061;DHT22;7105;43.616;1.434;2023-08-21T01:07:26;26.90;99.90
14061;DHT22;7105;43.616;1.434;2023-08-21T01:09:54;26.90;99.90
14061;DHT22;7105;43.616;1.434;2023-08-21T01:15:38;26.90;99.90
14061;DHT22;7105;43.616;1.434;2023-08-21T01:18:05;26.80;99.90
14061;DHT22;7105;43.616;1.434;2023-08-21T01:20:32;26.60;99.90
14061;DHT22;7105;43.616;1.434;2023-08-21T01:23:04;26.50;99.90
14061;DHT22;7105;43.616;1.434;2023-08-21T01:25:31;26.30;99.90
14061;DHT22;7105;43.616;1.434;2023-08-21T01:27:56;26.50;99.90
14061;DHT22;7105;43.616;1.434;2023-08-21T01:30:22;26.50;99.90
14061;DHT22;7105;43.616;1.434;2023-08-21T01:33:01;26.40;99.90
14061;DHT22;7105;43.616;1.434;2023-08-21T01:35:31;26.40;99.90
14061;DHT22;7105;43.616;1.434;2023-08-21T01:37:59;26.40;99.90
14061;DHT22;7105;43.616;1.434;2023-08-21T01:40:25;26.50;99.90
14061;DHT22;7105;43.616;1.434;2023-08-21T01:42:53;26.40;99.90
14061;DHT22;7105;43.616;1.434;2023-08-21T01:45:19;26.40;99.90
14061;DHT22;7105;43.616;1.434;2023-08-21T01:47:45;26.30;99.90
14061;DHT22;7105;43.616;1.434;2023-08-21T01:50:11;26.20;99.90
14061;DHT22;7105;43.616;1.434;2023-08-21T01:52:36;26.30;99.90
14061;DHT22;7105;43.616;1.434;2023-08-21T01:55:02;26.00;99.90
14061;DHT22;7105;43.616;1.434;2023-08-21T01:57:29;25.90;99.90
14061;DHT22;7105;43.616;1.434;2023-08-21T01:59:54;25.90;99.90
14061;DHT22;7105;43.616;1.434;2023-08-21T02:02:20;25.70;99.90
14061;DHT22;7105;43.616;1.434;2023-08-21T02:04:46;25.70;99.90
14061;DHT22;7105;43.616;1.434;2023-08-21T02:07:11;25.70;99.90
14061;DHT22;7105;43.616;1.434;2023-08-21T02:09:37;25.80;99.90
14061;DHT22;7105;43.616;1.434;2023-08-21T02:12:03;25.70;99.90
14061;DHT22;7105;43.616;1.434;2023-08-21T02:14:29;25.70;99.90
14061;DHT22;7105;43.616;1.434;2023-08-21T02:16:54;25.80;99.90
14061;DHT22;7105;43.616;1.434;2023-08-21T02:19:20;25.80;99.90
14061;DHT22;7105;43.616;1.434;2023-08-21T02:21:45;25.60;99.90
14061;DHT22;7105;43.616;1.434;2023-08-21T02:24:11;25.40;99.90
14061;DHT22;7105;43.616;1.434;2023-08-21T02:26:37;25.60;99.90
14061;DHT22;7105;43.616;1.434;2023-08-21T02:29:02;25.60;99.90
14061;DHT22;7105;43.616;1.434;2023-08-21T02:31:29;25.50;99.90
14061;DHT22;7105;43.616;1.434;2023-08-21T02:33:54;25.50;99.90
14061;DHT22;7105;43.616;1.434;2023-08-21T02:36:20;25.60;99.90
14061;DHT22;7105;43.616;1.434;2023-08-21T02:38:46;25.50;99.90
14061;DHT22;7105;43.616;1.434;2023-08-21T02:41:11;25.50;99.90
14061;DHT22;7105;43.616;1.434;2023-08-21T02:43:37;25.50;99.90
14061;DHT22;7105;43.616;1.434;2023-08-21T02:46:03;25.40;99.90
14061;DHT22;7105;43.616;1.434;2023-08-21T02:48:28;25.50;99.90
14061;DHT22;7105;43.616;1.434;2023-08-21T02:50:54;25.30;99.90
14061;DHT22;7105;43.616;1.434;2023-08-21T02:53:20;25.30;99.90
14061;DHT22;7105;43.616;1.434;2023-08-21T02:55:46;25.30;99.90
14061;DHT22;7105;43.616;1.434;2023-08-21T02:58:11;25.10;99.90
14061;DHT22;7105;43.616;1.434;2023-08-21T03:00:37;24.90;99.90
14061;DHT22;7105;43.616;1.434;2023-08-21T03:03:03;24.90;99.90
14061;DHT22;7105;43.616;1.434;2023-08-21T03:05:29;24.90;99.90
14061;DHT22;7105;43.616;1.434;2023-08-21T03:07:55;24.90;99.90
14061;DHT22;7105;43.616;1.434;2023-08-21T03:10:21;24.90;99.90
14061;DHT22;7105;43.616;1.434;2023-08-21T03:12:49;24.80;99.90
14061;DHT22;7105;43.616;1.434;2023-08-21T03:15:14;24.80;99.90
14061;DHT22;7105;43.616;1.434;2023-08-21T03:17:40;24.60;99.90
14061;DHT22;7105;43.616;1.434;2023-08-21T03:20:07;24.70;99.90
14061;DHT22;7105;43.616;1.434;2023-08-21T03:22:32;24.60;99.90
14061;DHT22;7105;43.616;1.434;2023-08-21T03:24:58;24.70;99.90
14061;DHT22;7105;43.616;1.434;2023-08-21T03:27:24;24.70;99.90
14061;DHT22;7105;43.616;1.434;2023-08-21T03:29:50;24.50;99.90
14061;DHT22;7105;43.616;1.434;2023-08-21T03:32:16;24.60;99.90
14061;DHT22;7105;43.616;1.434;2023-08-21T03:34:43;24.50;99.90
14061;DHT22;7105;43.616;1.434;2023-08-21T03:37:09;24.50;99.90
14061;DHT22;7105;43.616;1.434;2023-08-21T03:39:35;24.50;99.90
14061;DHT22;7105;43.616;1.434;2023-08-21T03:42:01;24.40;99.90
14061;DHT22;7105;43.616;1.434;2023-08-21T03:44:26;24.30;99.90
14061;DHT22;7105;43.616;1.434;2023-08-21T03:46:52;24.40;99.90
14061;DHT22;7105;43.616;1.434;2023-08-21T03:49:18;24.30;99.90
14061;DHT22;7105;43.616;1.434;2023-08-21T03:51:44;24.40;99.90
14061;DHT22;7105;43.616;1.434;2023-08-21T03:54:09;24.50;99.90
14061;DHT22;7105;43.616;1.434;2023-08-21T03:56:36;24.50;99.90
14061;DHT22;7105;43.616;1.434;2023-08-21T03:59:02;24.40;99.90
14061;DHT22;7105;43.616;1.434;2023-08-21T04:01:27;24.30;99.90
14061;DHT22;7105;43.616;1.434;2023-08-21T04:03:53;24.40;99.90
14061;DHT22;7105;43.616;1.434;2023-08-21T04:06:19;24.40;99.90
14061;DHT22;7105;43.616;1.434;2023-08-21T04:08:46;24.30;99.90
14061;DHT22;7105;43.616;1.434;2023-08-21T04:11:11;24.20;99.90
14061;DHT22;7105;43.616;1.434;2023-08-21T04:13:37;24.30;99.90
14061;DHT22;7105;43.616;1.434;2023-08-21T04:16:03;24.20;99.90
14061;DHT22;7105;43.616;1.434;2023-08-21T04:18:28;24.30;99.90
14061;DHT22;7105;43.616;1.434;2023-08-21T04:20:54;24.20;99.90
14061;DHT22;7105;43.616;1.434;2023-08-21T04:23:20;24.30;99.90
14061;DHT22;7105;43.616;1.434;2023-08-21T04:25:45;24.30;99.90
14061;DHT22;7105;43.616;1.434;2023-08-21T04:28:11;24.30;99.90
14061;DHT22;7105;43.616;1.434;2023-08-21T04:30:37;24.10;99.90
14061;DHT22;7105;43.616;1.434;2023-08-21T04:33:02;24.10;99.90
14061;DHT22;7105;43.616;1.434;2023-08-21T04:35:28;24.00;99.90
14061;DHT22;7105;43.616;1.434;2023-08-21T04:37:54;24.00;99.90
14061;DHT22;7105;43.616;1.434;2023-08-21T04:40:20;24.10;99.90
14061;DHT22;7105;43.616;1.434;2023-08-21T04:42:47;24.20;99.90
14061;DHT22;7105;43.616;1.434;2023-08-21T04:45:13;24.20;99.90
14061;DHT22;7105;43.616;1.434;2023-08-21T04:47:38;24.20;99.90
14061;DHT22;7105;43.616;1.434;2023-08-21T04:50:05;24.20;99.90
14061;DHT22;7105;43.616;1.434;2023-08-21T04:52:31;24.10;99.90
14061;DHT22;7105;43.616;1.434;2023-08-21T04:54:56;24.10;99.90
14061;DHT22;7105;43.616;1.434;2023-08-21T04:57:22;24.00;99.90
14061;DHT22;7105;43.616;1.434;2023-08-21T04:59:48;23.80;99.90
14061;DHT22;7105;43.616;1.434;2023-08-21T05:02:14;24.00;99.90
14061;DHT22;7105;43.616;1.434;2023-08-21T05:04:40;24.00;99.90
14061;DHT22;7105;43.616;1.434;2023-08-21T05:07:06;24.00;99.90
14061;DHT22;7105;43.616;1.434;2023-08-21T05:09:32;24.20;99.90
14061;DHT22;7105;43.616;1.434;2023-08-21T05:11:58;24.00;99.90
14061;DHT22;7105;43.616;1.434;2023-08-21T05:14:24;24.20;99.90
14061;DHT22;7105;43.616;1.434;2023-08-21T05:16:49;24.20;99.90
14061;DHT22;7105;43.616;1.434;2023-08-21T05:19:16;24.10;99.90
14061;DHT22;7105;43.616;1.434;2023-08-21T05:21:42;24.10;99.90
14061;DHT22;7105;43.616;1.434;2023-08-21T05:24:08;23.90;99.90
14061;DHT22;7105;43.616;1.434;2023-08-21T05:26:35;24.10;99.90
14061;DHT22;7105;43.616;1.434;2023-08-21T05:29:02;24.30;99.90
14061;DHT22;7105;43.616;1.434;2023-08-21T05:31:27;24.20;99.90
14061;DHT22;7105;43.616;1.434;2023-08-21T05:33:53;24.30;99.90
14061;DHT22;7105;43.616;1.434;2023-08-21T05:36:19;24.20;99.90
14061;DHT22;7105;43.616;1.434;2023-08-21T05:38:44;24.20;99.90
14061;DHT22;7105;43.616;1.434;2023-08-21T05:41:11;24.20;99.90
14061;DHT22;7105;43.616;1.434;2023-08-21T05:43:37;24.30;99.90
14061;DHT22;7105;43.616;1.434;2023-08-21T05:46:05;24.30;99.90
14061;DHT22;7105;43.616;1.434;2023-08-21T05:48:31;24.40;99.90
14061;DHT22;7105;43.616;1.434;2023-08-21T05:50:57;25.40;99.90
14061;DHT22;7105;43.616;1.434;2023-08-21T05:53:22;25.00;99.90
14061;DHT22;7105;43.616;1.434;2023-08-21T05:55:48;25.10;99.90
14061;DHT22;7105;43.616;1.434;2023-08-21T05:58:14;25.50;99.90
14061;DHT22;7105;43.616;1.434;2023-08-21T06:00:39;25.50;99.90
14061;DHT22;7105;43.616;1.434;2023-08-21T06:03:05;25.10;99.90
14061;DHT22;7105;43.616;1.434;2023-08-21T06:05:31;25.10;99.90
14061;DHT22;7105;43.616;1.434;2023-08-21T06:07:56;24.80;99.90
14061;DHT22;7105;43.616;1.434;2023-08-21T06:10:22;25.10;99.90
14061;DHT22;7105;43.616;1.434;2023-08-21T06:12:48;24.90;99.90
14061;DHT22;7105;43.616;1.434;2023-08-21T06:15:14;25.00;99.90
14061;DHT22;7105;43.616;1.434;2023-08-21T06:17:40;25.20;99.90
14061;DHT22;7105;43.616;1.434;2023-08-21T06:20:07;25.00;99.90
14061;DHT22;7105;43.616;1.434;2023-08-21T06:22:36;25.20;99.90
14061;DHT22;7105;43.616;1.434;2023-08-21T06:25:02;25.90;99.90
14061;DHT22;7105;43.616;1.434;2023-08-21T06:27:27;27.60;99.90
14061;DHT22;7105;43.616;1.434;2023-08-21T06:29:55;28.30;99.90
14061;DHT22;7105;43.616;1.434;2023-08-21T06:32:20;30.10;99.90
14061;DHT22;7105;43.616;1.434;2023-08-21T06:34:46;30.70;99.90
14061;DHT22;7105;43.616;1.434;2023-08-21T06:37:11;29.80;99.90
14061;DHT22;7105;43.616;1.434;2023-08-21T06:39:38;28.80;99.90
14061;DHT22;7105;43.616;1.434;2023-08-21T06:42:04;30.00;99.90
14061;DHT22;7105;43.616;1.434;2023-08-21T06:44:30;31.00;99.90
14061;DHT22;7105;43.616;1.434;2023-08-21T06:46:55;30.50;99.90
14061;DHT22;7105;43.616;1.434;2023-08-21T06:49:21;29.50;99.90
14061;DHT22;7105;43.616;1.434;2023-08-21T06:51:46;29.60;99.90
14061;DHT22;7105;43.616;1.434;2023-08-21T06:54:12;29.90;99.90
14061;DHT22;7105;43.616;1.434;2023-08-21T06:56:38;30.70;99.90
14061;DHT22;7105;43.616;1.434;2023-08-21T06:59:03;32.10;99.90
14061;DHT22;7105;43.616;1.434;2023-08-21T07:01:29;32.00;99.90
14061;DHT22;7105;43.616;1.434;2023-08-21T07:03:55;31.70;99.90
14061;DHT22;7105;43.616;1.434;2023-08-21T07:06:20;31.70;99.90
14061;DHT22;7105;43.616;1.434;2023-08-21T07:08:46;32.80;99.90
14061;DHT22;7105;43.616;1.434;2023-08-21T07:11:12;34.10;99.90
14061;DHT22;7105;43.616;1.434;2023-08-21T07:13:38;33.40;99.90
14061;DHT22;7105;43.616;1.434;2023-08-21T07:16:04;34.30;99.90
14061;DHT22;7105;43.616;1.434;2023-08-21T07:18:32;34.90;99.90
14061;DHT22;7105;43.616;1.434;2023-08-21T07:20:59;35.40;99.90
14061;DHT22;7105;43.616;1.434;2023-08-21T07:23:25;34.80;99.90
14061;DHT22;7105;43.616;1.434;2023-08-21T07:25:51;35.30;99.90
14061;DHT22;7105;43.616;1.434;2023-08-21T07:28:17;35.80;99.90
14061;DHT22;7105;43.616;1.434;2023-08-21T07:30:42;35.40;99.90
14061;DHT22;7105;43.616;1.434;2023-08-21T07:33:08;34.80;99.90
14061;DHT22;7105;43.616;1.434;2023-08-21T07:35:34;35.80;99.90
14061;DHT22;7105;43.616;1.434;2023-08-21T07:38:01;35.20;99.90
14061;DHT22;7105;43.616;1.434;2023-08-21T07:40:27;37.30;99.90
14061;DHT22;7105;43.616;1.434;2023-08-21T07:42:52;36.80;99.90
14061;DHT22;7105;43.616;1.434;2023-08-21T07:45:18;35.50;99.90
14061;DHT22;7105;43.616;1.434;2023-08-21T07:47:44;35.20;99.90
14061;DHT22;7105;43.616;1.434;2023-08-21T07:50:10;36.50;99.90
14061;DHT22;7105;43.616;1.434;2023-08-21T07:52:36;36.20;99.90
14061;DHT22;7105;43.616;1.434;2023-08-21T07:55:02;37.40;99.90
14061;DHT22;7105;43.616;1.434;2023-08-21T07:57:29;37.90;99.90
14061;DHT22;7105;43.616;1.434;2023-08-21T07:59:55;35.70;99.90
14061;DHT22;7105;43.616;1.434;2023-08-21T08:02:22;36.00;99.90
14061;DHT22;7105;43.616;1.434;2023-08-21T08:04:48;36.40;99.90
14061;DHT22;7105;43.616;1.434;2023-08-21T08:07:13;37.10;99.90
14061;DHT22;7105;43.616;1.434;2023-08-21T08:09:39;36.20;99.90
14061;DHT22;7105;43.616;1.434;2023-08-21T08:12:05;35.80;99.90
14061;DHT22;7105;43.616;1.434;2023-08-21T08:14:31;35.30;99.90
14061;DHT22;7105;43.616;1.434;2023-08-21T08:16:57;36.40;99.90
14061;DHT22;7105;43.616;1.434;2023-08-21T08:19:23;38.20;99.90
14061;DHT22;7105;43.616;1.434;2023-08-21T08:21:49;37.60;99.90
14061;DHT22;7105;43.616;1.434;2023-08-21T08:24:14;37.80;99.90
14061;DHT22;7105;43.616;1.434;2023-08-21T08:26:40;37.80;99.90
14061;DHT22;7105;43.616;1.434;2023-08-21T08:29:08;37.20;99.90
14061;DHT22;7105;43.616;1.434;2023-08-21T08:31:33;38.60;99.90
14061;DHT22;7105;43.616;1.434;2023-08-21T08:33:59;38.60;99.90
14061;DHT22;7105;43.616;1.434;2023-08-21T08:36:25;40.70;99.90
14061;DHT22;7105;43.616;1.434;2023-08-21T08:38:50;41.50;99.90
14061;DHT22;7105;43.616;1.434;2023-08-21T08:43:57;38.70;99.90
14061;DHT22;7105;43.616;1.434;2023-08-21T08:46:29;38.80;99.90
14061;DHT22;7105;43.616;1.434;2023-08-21T08:48:56;39.60;99.90
14061;DHT22;7105;43.616;1.434;2023-08-21T08:51:24;41.00;99.90
14061;DHT22;7105;43.616;1.434;2023-08-21T08:53:50;39.10;99.90
14061;DHT22;7105;43.616;1.434;2023-08-21T08:56:16;37.50;99.90
14061;DHT22;7105;43.616;1.434;2023-08-21T08:58:42;38.70;99.90
14061;DHT22;7105;43.616;1.434;2023-08-21T09:01:09;39.40;99.90
14061;DHT22;7105;43.616;1.434;2023-08-21T09:03:38;40.90;99.90
14061;DHT22;7105;43.616;1.434;2023-08-21T09:06:04;39.50;99.90
14061;DHT22;7105;43.616;1.434;2023-08-21T09:08:30;40.20;99.90
14061;DHT22;7105;43.616;1.434;2023-08-21T09:10:55;40.80;99.90
14061;DHT22;7105;43.616;1.434;2023-08-21T09:13:26;37.40;99.90
14061;DHT22;7105;43.616;1.434;2023-08-21T09:15:55;35.10;99.90
14061;DHT22;7105;43.616;1.434;2023-08-21T09:18:21;33.50;99.90
14061;DHT22;7105;43.616;1.434;2023-08-21T09:20:47;32.90;99.90
14061;DHT22;7105;43.616;1.434;2023-08-21T09:23:14;32.50;99.90
14061;DHT22;7105;43.616;1.434;2023-08-21T09:25:40;33.00;99.90
14061;DHT22;7105;43.616;1.434;2023-08-21T09:28:07;30.90;99.90
14061;DHT22;7105;43.616;1.434;2023-08-21T09:30:53;30.70;99.90
14061;DHT22;7105;43.616;1.434;2023-08-21T09:33:20;31.70;99.90
14061;DHT22;7105;43.616;1.434;2023-08-21T09:35:47;31.50;99.90
14061;DHT22;7105;43.616;1.434;2023-08-21T09:38:13;31.60;99.90
14061;DHT22;7105;43.616;1.434;2023-08-21T09:40:43;31.60;99.90
14061;DHT22;7105;43.616;1.434;2023-08-21T09:43:15;31.20;99.90
14061;DHT22;7105;43.616;1.434;2023-08-21T09:45:40;31.60;99.90
14061;DHT22;7105;43.616;1.434;2023-08-21T09:48:07;31.10;99.90
14061;DHT22;7105;43.616;1.434;2023-08-21T09:50:33;30.60;99.90
14061;DHT22;7105;43.616;1.434;2023-08-21T09:53:01;31.20;99.90
14061;DHT22;7105;43.616;1.434;2023-08-21T09:55:27;31.30;99.90
14061;DHT22;7105;43.616;1.434;2023-08-21T09:57:59;31.70;99.90
14061;DHT22;7105;43.616;1.434;2023-08-21T10:00:32;31.70;99.90
14061;DHT22;7105;43.616;1.434;2023-08-21T10:03:02;31.00;99.90
14061;DHT22;7105;43.616;1.434;2023-08-21T10:05:32;31.00;99.90
14061;DHT22;7105;43.616;1.434;2023-08-21T10:08:03;31.20;99.90
14061;DHT22;7105;43.616;1.434;2023-08-21T10:10:35;31.00;99.90
14061;DHT22;7105;43.616;1.434;2023-08-21T10:13:02;31.00;99.90
14061;DHT22;7105;43.616;1.434;2023-08-21T10:15:29;31.10;99.90
14061;DHT22;7105;43.616;1.434;2023-08-21T10:17:56;31.50;99.90
14061;DHT22;7105;43.616;1.434;2023-08-21T10:20:24;31.60;99.90
14061;DHT22;7105;43.616;1.434;2023-08-21T10:22:54;31.20;99.90
14061;DHT22;7105;43.616;1.434;2023-08-21T10:25:22;31.20;99.90
14061;DHT22;7105;43.616;1.434;2023-08-21T10:27:59;31.00;99.90
14061;DHT22;7105;43.616;1.434;2023-08-21T10:30:29;31.20;99.90
14061;DHT22;7105;43.616;1.434;2023-08-21T10:32:57;31.20;99.90
14061;DHT22;7105;43.616;1.434;2023-08-21T10:35:29;31.20;99.90
14061;DHT22;7105;43.616;1.434;2023-08-21T10:38:09;31.20;99.90
14061;DHT22;7105;43.616;1.434;2023-08-21T10:40:36;31.50;99.90
14061;DHT22;7105;43.616;1.434;2023-08-21T10:43:02;31.30;99.90
14061;DHT22;7105;43.616;1.434;2023-08-21T10:45:29;31.60;99.90
14061;DHT22;7105;43.616;1.434;2023-08-21T10:48:00;31.90;99.90
14061;DHT22;7105;43.616;1.434;2023-08-21T10:50:26;31.90;99.90
14061;DHT22;7105;43.616;1.434;2023-08-21T10:52:53;31.10;99.90
14061;DHT22;7105;43.616;1.434;2023-08-21T10:55:19;31.10;99.90
14061;DHT22;7105;43.616;1.434;2023-08-21T10:57:49;31.50;99.90
14061;DHT22;7105;43.616;1.434;2023-08-21T11:00:17;31.60;99.90
14061;DHT22;7105;43.616;1.434;2023-08-21T11:02:48;31.90;99.90
14061;DHT22;7105;43.616;1.434;2023-08-21T11:05:15;32.30;99.90
14061;DHT22;7105;43.616;1.434;2023-08-21T11:07:48;31.80;99.90
14061;DHT22;7105;43.616;1.434;2023-08-21T11:10:18;31.30;99.90
14061;DHT22;7105;43.616;1.434;2023-08-21T11:12:52;31.50;99.90
14061;DHT22;7105;43.616;1.434;2023-08-21T11:15:18;31.60;99.90
14061;DHT22;7105;43.616;1.434;2023-08-21T11:17:52;31.70;99.90
14061;DHT22;7105;43.616;1.434;2023-08-21T11:20:18;31.50;99.90
14061;DHT22;7105;43.616;1.434;2023-08-21T11:22:44;31.40;99.90
14061;DHT22;7105;43.616;1.434;2023-08-21T11:25:10;31.90;99.90
14061;DHT22;7105;43.616;1.434;2023-08-21T11:27:35;32.30;99.90
14061;DHT22;7105;43.616;1.434;2023-08-21T11:30:01;31.80;99.90
14061;DHT22;7105;43.616;1.434;2023-08-21T11:32:27;32.10;99.90
14061;DHT22;7105;43.616;1.434;2023-08-21T11:34:55;32.30;99.90
14061;DHT22;7105;43.616;1.434;2023-08-21T11:37:23;32.30;99.90
14061;DHT22;7105;43.616;1.434;2023-08-21T11:39:51;32.30;99.90
14061;DHT22;7105;43.616;1.434;2023-08-21T11:42:28;32.30;99.90
14061;DHT22;7105;43.616;1.434;2023-08-21T11:44:54;32.30;99.90
14061;DHT22;7105;43.616;1.434;2023-08-21T11:47:22;32.90;99.90
14061;DHT22;7105;43.616;1.434;2023-08-21T11:49:48;32.70;99.90
14061;DHT22;7105;43.616;1.434;2023-08-21T11:52:22;33.00;99.90
14061;DHT22;7105;43.616;1.434;2023-08-21T11:54:52;32.40;99.90
14061;DHT22;7105;43.616;1.434;2023-08-21T11:57:18;32.70;99.90
14061;DHT22;7105;43.616;1.434;2023-08-21T12:00:02;32.60;99.90
14061;DHT22;7105;43.616;1.434;2023-08-21T12:02:30;32.70;99.90
14061;DHT22;7105;43.616;1.434;2023-08-21T12:05:04;32.80;99.90
14061;DHT22;7105;43.616;1.434;2023-08-21T12:07:34;32.90;99.90
14061;DHT22;7105;43.616;1.434;2023-08-21T12:10:00;33.20;99.90
14061;DHT22;7105;43.616;1.434;2023-08-21T12:12:26;33.30;99.90
14061;DHT22;7105;43.616;1.434;2023-08-21T12:14:52;33.00;99.90
14061;DHT22;7105;43.616;1.434;2023-08-21T12:17:18;33.00;99.90
14061;DHT22;7105;43.616;1.434;2023-08-21T12:19:43;33.10;99.90
14061;DHT22;7105;43.616;1.434;2023-08-21T12:22:09;33.40;99.90
14061;DHT22;7105;43.616;1.434;2023-08-21T12:24:35;33.70;99.90
14061;DHT22;7105;43.616;1.434;2023-08-21T12:27:03;33.90;99.90
14061;DHT22;7105;43.616;1.434;2023-08-21T12:29:28;33.70;99.90
14061;DHT22;7105;43.616;1.434;2023-08-21T12:31:54;33.70;99.90
14061;DHT22;7105;43.616;1.434;2023-08-21T12:34:20;34.10;99.90
14061;DHT22;7105;43.616;1.434;2023-08-21T12:36:45;33.80;99.90
14061;DHT22;7105;43.616;1.434;2023-08-21T12:39:11;33.50;99.90
14061;DHT22;7105;43.616;1.434;2023-08-21T12:41:37;33.60;99.90
14061;DHT22;7105;43.616;1.434;2023-08-21T12:44:03;33.80;99.90
14061;DHT22;7105;43.616;1.434;2023-08-21T12:46:29;34.30;99.90
14061;DHT22;7105;43.616;1.434;2023-08-21T12:48:56;34.10;99.90
14061;DHT22;7105;43.616;1.434;2023-08-21T12:51:22;34.40;99.90
14061;DHT22;7105;43.616;1.434;2023-08-21T12:53:48;34.30;99.90
14061;DHT22;7105;43.616;1.434;2023-08-21T12:56:14;34.40;99.90
14061;DHT22;7105;43.616;1.434;2023-08-21T12:58:39;34.40;99.90
14061;DHT22;7105;43.616;1.434;2023-08-21T13:01:05;34.60;99.90
14061;DHT22;7105;43.616;1.434;2023-08-21T13:03:33;34.80;99.90
14061;DHT22;7105;43.616;1.434;2023-08-21T13:05:59;34.80;99.90
14061;DHT22;7105;43.616;1.434;2023-08-21T13:08:25;34.50;99.90
14061;DHT22;7105;43.616;1.434;2023-08-21T13:10:50;34.30;99.90
14061;DHT22;7105;43.616;1.434;2023-08-21T13:13:16;34.40;99.90
14061;DHT22;7105;43.616;1.434;2023-08-21T13:15:42;34.50;99.90
14061;DHT22;7105;43.616;1.434;2023-08-21T13:18:12;34.60;99.90
14061;DHT22;7105;43.616;1.434;2023-08-21T13:20:41;34.70;99.90
14061;DHT22;7105;43.616;1.434;2023-08-21T13:23:06;34.60;99.90
14061;DHT22;7105;43.616;1.434;2023-08-21T13:25:32;34.80;99.90
14061;DHT22;7105;43.616;1.434;2023-08-21T13:28:00;34.80;99.90
14061;DHT22;7105;43.616;1.434;2023-08-21T13:30:26;34.80;99.90
14061;DHT22;7105;43.616;1.434;2023-08-21T13:32:52;34.80;99.90
14061;DHT22;7105;43.616;1.434;2023-08-21T13:35:17;34.90;99.90
14061;DHT22;7105;43.616;1.434;2023-08-21T13:37:45;34.90;99.90
14061;DHT22;7105;43.616;1.434;2023-08-21T13:40:10;35.00;99.90
14061;DHT22;7105;43.616;1.434;2023-08-21T13:42:40;35.30;99.90
14061;DHT22;7105;43.616;1.434;2023-08-21T13:45:13;35.10;99.90
14061;DHT22;7105;43.616;1.434;2023-08-21T13:47:43;35.30;99.90
14061;DHT22;7105;43.616;1.434;2023-08-21T13:50:10;35.50;99.90
14061;DHT22;7105;43.616;1.434;2023-08-21T13:52:36;35.60;99.90
14061;DHT22;7105;43.616;1.434;2023-08-21T13:55:04;35.50;99.90
14061;DHT22;7105;43.616;1.434;2023-08-21T13:57:30;35.80;99.90
14061;DHT22;7105;43.616;1.434;2023-08-21T13:59:57;35.90;99.90
14061;DHT22;7105;43.616;1.434;2023-08-21T14:02:22;36.00;99.90
14061;DHT22;7105;43.616;1.434;2023-08-21T14:04:48;35.90;99.90
14061;DHT22;7105;43.616;1.434;2023-08-21T14:07:15;35.90;99.90
14061;DHT22;7105;43.616;1.434;2023-08-21T14:09:41;35.80;99.90
14061;DHT22;7105;43.616;1.434;2023-08-21T14:12:07;35.80;99.90
14061;DHT22;7105;43.616;1.434;2023-08-21T14:14:34;36.20;99.90
14061;DHT22;7105;43.616;1.434;2023-08-21T14:16:59;35.90;99.90
14061;DHT22;7105;43.616;1.434;2023-08-21T14:19:25;35.90;99.90
14061;DHT22;7105;43.616;1.434;2023-08-21T14:21:51;36.20;99.90
14061;DHT22;7105;43.616;1.434;2023-08-21T14:24:16;36.10;99.90
14061;DHT22;7105;43.616;1.434;2023-08-21T14:26:42;36.10;99.90
14061;DHT22;7105;43.616;1.434;2023-08-21T14:29:08;36.10;99.90
14061;DHT22;7105;43.616;1.434;2023-08-21T14:31:34;36.30;99.90
14061;DHT22;7105;43.616;1.434;2023-08-21T14:33:59;36.40;99.90
14061;DHT22;7105;43.616;1.434;2023-08-21T14:36:25;36.30;99.90
14061;DHT22;7105;43.616;1.434;2023-08-21T14:38:51;36.30;99.90
14061;DHT22;7105;43.616;1.434;2023-08-21T14:41:17;36.20;99.90
14061;DHT22;7105;43.616;1.434;2023-08-21T14:43:43;36.20;99.90
14061;DHT22;7105;43.616;1.434;2023-08-21T14:46:09;36.40;99.90
14061;DHT22;7105;43.616;1.434;2023-08-21T14:48:36;36.40;99.90
14061;DHT22;7105;43.616;1.434;2023-08-21T14:51:02;36.60;99.90
14061;DHT22;7105;43.616;1.434;2023-08-21T14:53:27;36.40;99.90
14061;DHT22;7105;43.616;1.434;2023-08-21T14:55:53;36.50;99.90
14061;DHT22;7105;43.616;1.434;2023-08-21T14:58:19;36.30;99.90
14061;DHT22;7105;43.616;1.434;2023-08-21T15:00:44;36.60;99.90
14061;DHT22;7105;43.616;1.434;2023-08-21T15:03:10;36.60;99.90
14061;DHT22;7105;43.616;1.434;2023-08-21T15:05:36;36.60;99.90
14061;DHT22;7105;43.616;1.434;2023-08-21T15:08:01;36.60;99.90
14061;DHT22;7105;43.616;1.434;2023-08-21T15:10:30;36.70;99.90
14061;DHT22;7105;43.616;1.434;2023-08-21T15:12:56;36.60;99.90
14061;DHT22;7105;43.616;1.434;2023-08-21T15:15:21;36.60;99.90
14061;DHT22;7105;43.616;1.434;2023-08-21T15:17:47;36.60;99.90
14061;DHT22;7105;43.616;1.434;2023-08-21T15:20:13;36.80;99.90
14061;DHT22;7105;43.616;1.434;2023-08-21T15:22:41;36.60;99.90
14061;DHT22;7105;43.616;1.434;2023-08-21T15:25:08;36.70;99.90
14061;DHT22;7105;43.616;1.434;2023-08-21T15:27:35;36.50;99.90
14061;DHT22;7105;43.616;1.434;2023-08-21T15:30:01;36.40;99.90
14061;DHT22;7105;43.616;1.434;2023-08-21T15:32:27;36.40;99.90
14061;DHT22;7105;43.616;1.434;2023-08-21T15:34:53;36.70;99.90
14061;DHT22;7105;43.616;1.434;2023-08-21T15:37:19;36.80;99.90
14061;DHT22;7105;43.616;1.434;2023-08-21T15:39:44;36.60;99.90
14061;DHT22;7105;43.616;1.434;2023-08-21T15:42:10;36.60;99.90
14061;DHT22;7105;43.616;1.434;2023-08-21T15:44:35;36.90;99.90
14061;DHT22;7105;43.616;1.434;2023-08-21T15:47:01;36.60;99.90